Time;durP1;ratioP1;P1;durP2;ratioP2;P2;SDS_P1;SDS_P2;PMS_P1;PMS_P2;Temp;Humidity;BMP_temperature;BMP_pressure;BME280_temperature;BME280_humidity;BME280_pressure;Samples;Min_cycle;Max_cycle;Signal;HPM_P1;HPM_P2
2022/05/30 00:00:24;;;;;;;2.35;1.50;;;15.00;56.90;;;;;;4915102;29;20679;-54
2022/05/30 00:02:51;;;;;;;4.57;1.63;;;15.00;57.20;;;;;;4921839;29;20107;-54
2022/05/30 00:05:21;;;;;;;3.63;1.55;;;14.90;57.20;;;;;;4912509;29;20047;-53
2022/05/30 00:07:48;;;;;;;2.47;1.50;;;14.90;57.40;;;;;;4911484;29;20044;-55
2022/05/30 00:10:16;;;;;;;2.97;2.08;;;14.90;57.30;;;;;;4910686;29;20099;-57
2022/05/30 00:12:43;;;;;;;3.08;1.67;;;14.90;57.40;;;;;;4922825;29;20044;-54
2022/05/30 00:15:16;;;;;;;3.38;1.40;;;14.90;57.50;;;;;;4928894;29;20437;-54
2022/05/30 00:17:43;;;;;;;2.65;1.77;;;14.90;57.90;;;;;;4926630;29;20067;-54
2022/05/30 00:20:11;;;;;;;2.28;1.42;;;14.90;57.60;;;;;;4908886;29;20520;-55
2022/05/30 00:22:37;;;;;;;4.32;1.60;;;14.90;57.70;;;;;;4918481;29;20060;-53
2022/05/30 00:25:05;;;;;;;3.80;1.52;;;14.90;57.70;;;;;;4923090;29;20079;-53
2022/05/30 00:27:32;;;;;;;3.58;1.33;;;14.80;57.80;;;;;;4910636;29;20472;-55
2022/05/30 00:29:59;;;;;;;3.40;1.85;;;14.90;58.00;;;;;;4910087;29;20563;-56
2022/05/30 00:32:25;;;;;;;2.10;1.42;;;14.90;57.90;;;;;;4939097;29;20137;-51
2022/05/30 00:34:52;;;;;;;2.80;1.20;;;14.90;57.80;;;;;;4946963;29;20055;-51
2022/05/30 00:37:21;;;;;;;3.88;1.50;;;14.80;58.00;;;;;;4923940;29;20056;-54
2022/05/30 00:39:49;;;;;;;2.45;1.50;;;14.90;58.10;;;;;;4938306;29;20050;-56
2022/05/30 00:42:18;;;;;;;4.72;1.90;;;14.80;58.70;;;;;;4924308;29;20040;-52
2022/05/30 00:44:49;;;;;;;2.80;1.48;;;14.80;58.10;;;;;;4931709;29;20051;-54
2022/05/30 00:47:19;;;;;;;2.25;1.13;;;14.80;58.00;;;;;;4915025;29;20107;-55
2022/05/30 00:49:49;;;;;;;4.28;1.55;;;14.80;58.00;;;;;;4939562;29;20052;-54
2022/05/30 00:52:20;;;;;;;6.20;1.70;;;14.80;58.00;;;;;;4929950;29;20047;-54
2022/05/30 00:54:54;;;;;;;2.83;1.45;;;14.80;58.10;;;;;;4931199;29;20059;-54
2022/05/30 00:57:23;;;;;;;4.20;1.55;;;14.80;58.10;;;;;;4911291;29;20056;-55
2022/05/30 01:00:07;;;;;;;2.38;1.42;;;14.80;58.00;;;;;;4923617;29;20058;-54
2022/05/30 01:02:41;;;;;;;5.70;1.50;;;14.80;58.30;;;;;;4931567;29;20052;-54
2022/05/30 01:07:59;;;;;;;3.25;1.40;;;14.80;58.40;;;;;;4922850;29;20040;-55
2022/05/30 01:10:27;;;;;;;5.55;1.40;;;14.80;58.20;;;;;;4935778;29;20044;-53
2022/05/30 01:12:56;;;;;;;2.55;1.23;;;14.80;58.20;;;;;;4911966;29;20300;-55
2022/05/30 01:15:29;;;;;;;2.47;1.55;;;14.80;58.70;;;;;;4905269;29;20143;-55
2022/05/30 01:18:06;;;;;;;4.97;1.67;;;14.80;58.80;;;;;;4933854;28;20040;-53
2022/05/30 01:21:01;;;;;;;2.10;1.17;;;14.70;59.30;;;;;;4932975;29;20091;-50
2022/05/30 01:24:14;;;;;;;3.40;1.88;;;14.80;59.50;;;;;;4936729;29;20150;-50
2022/05/30 01:27:10;;;;;;;2.13;1.20;;;14.70;59.80;;;;;;4917012;29;20059;-55
2022/05/30 01:29:42;;;;;;;1.75;1.08;;;14.80;59.30;;;;;;4935495;29;20303;-55
2022/05/30 01:32:09;;;;;;;4.63;1.55;;;14.70;59.40;;;;;;4922463;29;20143;-53
2022/05/30 01:34:36;;;;;;;3.80;1.50;;;14.70;59.10;;;;;;4913664;29;20110;-54
2022/05/30 01:37:04;;;;;;;3.35;1.70;;;14.70;59.10;;;;;;4938631;28;20040;-52
2022/05/30 01:39:34;;;;;;;4.22;1.75;;;14.70;59.00;;;;;;4949886;29;20040;-55
2022/05/30 01:42:02;;;;;;;4.30;1.70;;;14.70;59.50;;;;;;4909530;29;20425;-52
2022/05/30 01:44:29;;;;;;;3.67;1.40;;;14.70;58.80;;;;;;4923891;29;20048;-55
2022/05/30 01:46:56;;;;;;;2.45;1.20;;;14.70;58.90;;;;;;4926914;29;20068;-55
2022/05/30 01:49:23;;;;;;;1.88;1.13;;;14.70;58.90;;;;;;4947739;29;20508;-53
2022/05/30 01:51:53;;;;;;;2.13;1.65;;;14.70;58.90;;;;;;4947041;29;20604;-53
2022/05/30 01:54:22;;;;;;;4.00;1.40;;;14.70;59.00;;;;;;4925983;29;20426;-55
2022/05/30 01:57:13;;;;;;;5.43;1.40;;;14.60;59.00;;;;;;4939728;29;20055;-56
2022/05/30 01:59:57;;;;;;;2.85;1.42;;;14.60;58.90;;;;;;4949277;29;20423;-52
2022/05/30 02:02:42;;;;;;;4.00;1.42;;;14.60;58.90;;;;;;4914457;29;20050;-56
2022/05/30 02:05:11;;;;;;;3.25;1.52;;;14.60;59.80;;;;;;4910629;29;20041;-56
2022/05/30 02:07:38;;;;;;;4.07;1.45;;;14.60;59.10;;;;;;4905978;29;20048;-54
2022/05/30 02:10:07;;;;;;;3.78;1.42;;;14.50;59.10;;;;;;4905899;29;20044;-54
2022/05/30 02:12:37;;;;;;;2.42;1.20;;;14.50;59.30;;;;;;4938879;29;20115;-53
2022/05/30 02:15:24;;;;;;;3.30;1.08;;;14.50;59.40;;;;;;4915561;29;20060;-52
2022/05/30 02:17:55;;;;;;;2.13;1.40;;;14.50;59.40;;;;;;4912986;29;20072;-53
2022/05/30 02:20:22;;;;;;;2.53;1.55;;;14.40;59.30;;;;;;4909637;29;20107;-51
2022/05/30 02:22:49;;;;;;;1.90;1.20;;;14.40;59.40;;;;;;4936460;29;20095;-57
2022/05/30 02:25:16;;;;;;;4.20;1.58;;;14.40;59.50;;;;;;4925134;29;20039;-53
2022/05/30 02:27:43;;;;;;;2.28;1.10;;;14.30;59.60;;;;;;4949308;29;20075;-53
2022/05/30 02:30:10;;;;;;;3.30;1.00;;;14.30;59.70;;;;;;4931962;29;20044;-56
2022/05/30 02:32:38;;;;;;;1.52;1.15;;;14.20;59.70;;;;;;4929478;29;20052;-53
2022/05/30 02:37:52;;;;;;;3.15;1.52;;;14.20;59.80;;;;;;4933987;29;20048;-55
2022/05/30 02:40:37;;;;;;;1.42;0.90;;;14.10;59.60;;;;;;4916517;29;20055;-54
2022/05/30 02:43:36;;;;;;;2.45;1.17;;;14.10;59.70;;;;;;4924147;29;20527;-54
2022/05/30 02:46:03;;;;;;;1.80;1.13;;;14.00;59.60;;;;;;4930082;29;20052;-55
2022/05/30 02:48:31;;;;;;;2.65;1.30;;;14.00;59.70;;;;;;4911865;29;20050;-55
2022/05/30 02:50:58;;;;;;;3.72;1.60;;;13.90;59.80;;;;;;4937332;29;20043;-52
2022/05/30 02:53:26;;;;;;;1.45;0.80;;;13.90;59.70;;;;;;4935368;29;20048;-53
2022/05/30 02:56:12;;;;;;;3.45;1.60;;;13.90;59.70;;;;;;4925761;29;20138;-56
2022/05/30 02:58:42;;;;;;;2.70;1.10;;;13.80;59.60;;;;;;4910501;29;20056;-56
2022/05/30 03:01:10;;;;;;;3.42;1.73;;;13.80;59.50;;;;;;4923523;29;20072;-54
2022/05/30 03:03:41;;;;;;;4.67;1.40;;;13.70;59.50;;;;;;4925381;29;20512;-51
2022/05/30 03:06:08;;;;;;;3.20;1.38;;;13.70;59.50;;;;;;4913409;29;20040;-52
2022/05/30 03:08:35;;;;;;;3.88;1.48;;;13.60;59.70;;;;;;4933149;29;20524;-51
2022/05/30 03:11:11;;;;;;;4.50;1.40;;;13.60;59.80;;;;;;4920644;29;20070;-55
2022/05/30 03:13:39;;;;;;;4.65;1.50;;;13.50;60.00;;;;;;4930951;29;20052;-53
2022/05/30 03:16:06;;;;;;;2.30;1.02;;;13.50;60.20;;;;;;4922941;29;20037;-53
2022/05/30 03:18:37;;;;;;;2.05;1.77;;;13.40;60.30;;;;;;4935904;29;20067;-57
2022/05/30 03:21:07;;;;;;;5.22;1.38;;;13.40;60.50;;;;;;4940734;29;20125;-57
2022/05/30 03:23:35;;;;;;;2.13;1.17;;;13.40;60.60;;;;;;4949422;29;20043;-53
2022/05/30 03:26:07;;;;;;;2.85;1.77;;;13.40;60.70;;;;;;4934060;29;20048;-51
2022/05/30 03:28:34;;;;;;;2.75;1.10;;;13.40;61.40;;;;;;4927213;29;20067;-51
2022/05/30 03:31:03;;;;;;;5.88;1.45;;;13.40;60.70;;;;;;4948309;29;20095;-54
2022/05/30 03:33:35;;;;;;;3.65;1.30;;;13.40;60.70;;;;;;4939386;29;20050;-53
2022/05/30 03:36:10;;;;;;;3.72;1.20;;;13.40;60.60;;;;;;4929095;29;20060;-51
2022/05/30 03:38:55;;;;;;;2.58;1.33;;;13.30;60.60;;;;;;4921479;29;20083;-54
2022/05/30 03:41:42;;;;;;;4.25;1.50;;;13.30;60.40;;;;;;4903427;29;20056;-55
2022/05/30 03:44:31;;;;;;;3.53;1.48;;;13.40;60.50;;;;;;4914439;29;20098;-56
2022/05/30 03:47:00;;;;;;;3.92;1.95;;;13.30;60.60;;;;;;4934599;29;20056;-52
2022/05/30 03:49:32;;;;;;;2.33;1.35;;;13.30;60.80;;;;;;4940656;29;20058;-52
2022/05/30 03:51:59;;;;;;;2.08;1.20;;;13.30;61.10;;;;;;4933491;29;20047;-52
2022/05/30 03:54:26;;;;;;;6.10;1.10;;;13.20;60.80;;;;;;4933529;29;20576;-56
2022/05/30 03:56:55;;;;;;;3.33;1.63;;;13.20;61.00;;;;;;4937833;29;20430;-56
2022/05/30 03:59:23;;;;;;;5.07;1.20;;;13.20;61.10;;;;;;4940254;29;20075;-53
2022/05/30 04:01:56;;;;;;;4.57;1.52;;;13.20;61.40;;;;;;4942046;28;20051;-55
2022/05/30 04:04:24;;;;;;;7.15;2.10;;;13.20;61.70;;;;;;4908770;29;20043;-54
2022/05/30 04:06:53;;;;;;;2.60;1.65;;;13.20;61.80;;;;;;4934121;29;20036;-53
2022/05/30 04:09:24;;;;;;;5.63;1.77;;;13.20;62.00;;;;;;4932442;29;20044;-55
2022/05/30 04:12:20;;;;;;;7.15;2.47;;;13.20;62.20;;;;;;4908202;29;20543;-53
2022/05/30 04:15:25;;;;;;;6.15;1.83;;;13.30;62.00;;;;;;4915922;29;20118;-55
2022/05/30 04:17:53;;;;;;;2.05;1.52;;;13.30;61.70;;;;;;4933109;29;20044;-54
2022/05/30 04:20:20;;;;;;;4.80;1.73;;;13.40;62.00;;;;;;4911962;29;20060;-55
2022/05/30 04:22:47;;;;;;;4.43;2.28;;;13.40;62.00;;;;;;4910045;29;20423;-54
2022/05/30 04:25:34;;;;;;;3.80;1.98;;;13.40;61.90;;;;;;4922764;29;20056;-54
2022/05/30 04:28:01;;;;;;;5.70;2.10;;;13.40;61.80;;;;;;4947873;29;20393;-54
2022/05/30 04:30:31;;;;;;;5.68;2.03;;;13.50;61.90;;;;;;4927745;29;20040;-55
2022/05/30 04:32:58;;;;;;;4.65;2.08;;;13.50;61.90;;;;;;4930322;29;20133;-56
2022/05/30 04:35:25;;;;;;;6.68;2.30;;;13.50;61.80;;;;;;4936628;29;20555;-52
2022/05/30 04:37:52;;;;;;;8.80;2.35;;;13.60;61.90;;;;;;4928378;29;20059;-51
2022/05/30 04:40:26;;;;;;;3.70;2.20;;;13.60;62.60;;;;;;4948478;23;20051;-49
2022/05/30 04:43:14;;;;;;;3.28;2.00;;;13.70;61.80;;;;;;4951107;29;20051;-51
2022/05/30 04:46:05;;;;;;;4.50;1.60;;;13.70;61.80;;;;;;4951111;28;20046;-50
2022/05/30 04:48:42;;;;;;;3.67;1.60;;;13.80;62.00;;;;;;4945801;28;20080;-49
2022/05/30 04:51:10;;;;;;;5.03;2.30;;;13.80;61.70;;;;;;4931720;28;20047;-50
2022/05/30 04:53:37;;;;;;;4.78;2.38;;;13.80;61.70;;;;;;4933848;28;20047;-54
2022/05/30 04:56:24;;;;;;;6.93;2.95;;;13.80;61.60;;;;;;4944071;29;20043;-50
2022/05/30 04:59:04;;;;;;;8.40;2.05;;;13.90;61.40;;;;;;4947495;29;20059;-53
2022/05/30 05:01:33;;;;;;;6.40;2.65;;;13.90;61.50;;;;;;4949181;28;20054;-50
2022/05/30 05:04:07;;;;;;;4.32;2.20;;;14.00;61.50;;;;;;4952580;28;20301;-53
2022/05/30 05:06:34;;;;;;;4.22;1.80;;;14.00;61.40;;;;;;4940713;29;20047;-54
2022/05/30 05:09:01;;;;;;;4.40;2.10;;;14.00;61.30;;;;;;4938970;28;20068;-53
2022/05/30 05:11:37;;;;;;;4.20;2.30;;;14.10;61.40;;;;;;4938382;28;20086;-49
2022/05/30 05:14:22;;;;;;;4.70;2.55;;;14.10;62.00;;;;;;4944118;29;20046;-53
2022/05/30 05:17:09;;;;;;;3.63;2.10;;;14.10;61.10;;;;;;4929188;29;20047;-52
2022/05/30 05:19:39;;;;;;;5.50;2.53;;;14.20;61.20;;;;;;4935808;28;20050;-46
2022/05/30 05:22:06;;;;;;;4.60;2.25;;;14.20;61.10;;;;;;4942960;29;20043;-48
2022/05/30 05:24:33;;;;;;;4.55;2.30;;;14.30;61.00;;;;;;4930862;28;20050;-48
2022/05/30 05:27:29;;;;;;;8.38;2.70;;;14.30;60.80;;;;;;4937528;29;20069;-50
2022/05/30 05:29:56;;;;;;;4.85;2.35;;;14.40;60.60;;;;;;4927312;29;20039;-52
2022/05/30 05:32:25;;;;;;;6.95;2.30;;;14.40;60.50;;;;;;4938482;29;20043;-52
2022/05/30 05:34:52;;;;;;;4.75;2.20;;;14.40;60.40;;;;;;4935425;28;20058;-52
2022/05/30 05:37:19;;;;;;;3.92;2.03;;;14.50;60.50;;;;;;4950347;28;20564;-52
2022/05/30 05:39:50;;;;;;;5.05;2.30;;;14.50;60.30;;;;;;4938710;28;20048;-49
2022/05/30 05:42:17;;;;;;;6.55;3.20;;;14.50;60.40;;;;;;4945181;29;20419;-52
2022/05/30 05:44:45;;;;;;;5.47;2.67;;;14.50;60.40;;;;;;4961849;28;20252;-51
2022/05/30 05:47:12;;;;;;;5.80;2.38;;;14.50;60.20;;;;;;4922984;29;20504;-52
2022/05/30 05:49:39;;;;;;;3.67;2.13;;;14.60;60.40;;;;;;4929587;29;20056;-53
2022/05/30 05:52:07;;;;;;;4.05;2.30;;;14.60;60.40;;;;;;4929330;29;20052;-51
2022/05/30 05:54:33;;;;;;;6.82;2.85;;;14.60;60.70;;;;;;4924433;29;20047;-51
2022/05/30 05:57:07;;;;;;;6.45;2.25;;;14.70;60.40;;;;;;4934471;29;20896;-53
2022/05/30 05:59:38;;;;;;;5.15;2.42;;;14.70;60.10;;;;;;4937039;28;20047;-52
2022/05/30 06:02:06;;;;;;;8.70;2.88;;;14.80;60.00;;;;;;4958723;28;20403;-53
2022/05/30 06:04:33;;;;;;;10.30;2.70;;;14.80;59.70;;;;;;4930279;29;20064;-53
2022/05/30 06:07:26;;;;;;;4.50;2.67;;;14.80;59.60;;;;;;4921648;29;20051;-52
2022/05/30 06:10:14;;;;;;;5.53;2.50;;;14.90;59.60;;;;;;4936955;29;20059;-52
2022/05/30 06:12:55;;;;;;;3.85;2.78;;;14.90;59.50;;;;;;4945895;28;20055;-52
2022/05/30 06:15:22;;;;;;;7.78;2.67;;;15.00;59.50;;;;;;4950121;28;20044;-53
2022/05/30 06:18:11;;;;;;;7.82;2.63;;;15.10;59.20;;;;;;4941714;29;20127;-53
2022/05/30 06:20:41;;;;;;;5.15;2.53;;;15.10;59.10;;;;;;4948299;28;20052;-53
2022/05/30 06:23:08;;;;;;;3.85;2.42;;;15.20;58.80;;;;;;4950011;28;20060;-54
2022/05/30 06:26:06;;;;;;;7.13;2.33;;;15.20;58.60;;;;;;4924719;29;20517;-53
2022/05/30 06:28:46;;;;;;;4.93;2.30;;;15.30;58.90;;;;;;4955805;28;20049;-53
2022/05/30 06:31:19;;;;;;;5.13;2.42;;;15.40;59.00;;;;;;4941844;28;20098;-50
2022/05/30 06:33:50;;;;;;;5.72;2.90;;;15.50;59.00;;;;;;4934312;29;20047;-51
2022/05/30 06:36:33;;;;;;;5.30;2.45;;;15.50;58.30;;;;;;4940112;28;20048;-53
2022/05/30 06:39:00;;;;;;;8.23;2.63;;;15.60;58.10;;;;;;4949547;29;20507;-50
2022/05/30 06:41:33;;;;;;;4.68;2.50;;;15.70;58.00;;;;;;4933126;29;20075;-52
2022/05/30 06:44:07;;;;;;;3.60;2.22;;;15.70;57.90;;;;;;4923527;29;20054;-52
2022/05/30 06:46:52;;;;;;;4.47;2.42;;;15.80;57.90;;;;;;4941745;28;20055;-53
2022/05/30 06:49:38;;;;;;;4.85;2.47;;;15.90;57.90;;;;;;4946346;28;20126;-53
2022/05/30 06:52:05;;;;;;;6.50;2.67;;;15.90;58.00;;;;;;4958227;28;20047;-51
2022/05/30 06:54:34;;;;;;;4.00;2.45;;;16.00;57.60;;;;;;4963746;28;20054;-52
2022/05/30 06:59:46;;;;;;;4.97;2.13;;;16.10;57.20;;;;;;4932231;29;20623;-52
2022/05/30 07:02:17;;;;;;;6.47;2.13;;;16.20;57.10;;;;;;4932978;28;20111;-51
2022/05/30 07:05:03;;;;;;;3.65;1.40;;;16.30;56.70;;;;;;4944845;29;20792;-54
2022/05/30 07:07:48;;;;;;;4.18;1.80;;;16.30;56.00;;;;;;4920031;29;20149;-54
2022/05/30 07:10:39;;;;;;;4.00;1.60;;;16.40;55.70;;;;;;4936313;28;20529;-50
2022/05/30 07:13:20;;;;;;;4.97;1.88;;;16.50;55.50;;;;;;4943251;28;20075;-54
2022/05/30 07:15:49;;;;;;;5.68;2.17;;;16.50;54.90;;;;;;4954443;28;20048;-54
2022/05/30 07:18:30;;;;;;;3.85;1.67;;;16.60;54.90;;;;;;4937802;29;20587;-54
2022/05/30 07:20:59;;;;;;;5.18;2.40;;;16.70;54.50;;;;;;4938818;28;20140;-51
2022/05/30 07:23:28;;;;;;;6.05;1.70;;;16.70;54.20;;;;;;4946594;28;20412;-53
2022/05/30 07:26:17;;;;;;;5.15;1.60;;;16.80;54.50;;;;;;4937750;29;20599;-53
2022/05/30 07:29:04;;;;;;;4.80;2.05;;;16.90;54.10;;;;;;4925728;29;20055;-54
2022/05/30 07:31:49;;;;;;;5.13;2.28;;;17.00;54.00;;;;;;4926763;29;20054;-52
2022/05/30 07:34:37;;;;;;;5.63;1.95;;;17.00;53.80;;;;;;4922472;29;20179;-49
2022/05/30 07:37:16;;;;;;;4.38;2.03;;;17.10;53.70;;;;;;4935349;29;20075;-49
2022/05/30 07:40:06;;;;;;;6.40;2.88;;;17.20;53.70;;;;;;4936640;28;20055;-54
2022/05/30 07:42:51;;;;;;;3.28;1.83;;;17.30;53.20;;;;;;4927718;29;20051;-54
2022/05/30 07:45:26;;;;;;;3.58;2.00;;;17.40;53.00;;;;;;4948150;28;20056;-52
2022/05/30 07:48:05;;;;;;;5.13;1.75;;;17.50;52.80;;;;;;4933045;29;20150;-54
2022/05/30 07:50:47;;;;;;;4.65;1.77;;;17.50;52.40;;;;;;4939666;28;20117;-53
2022/05/30 07:53:25;;;;;;;6.68;2.00;;;17.60;52.30;;;;;;4944935;29;20047;-52
2022/05/30 07:56:06;;;;;;;2.65;1.20;;;17.60;51.60;;;;;;4950633;28;20054;-54
2022/05/30 07:58:33;;;;;;;4.30;1.40;;;17.70;51.70;;;;;;4925870;29;20066;-54
2022/05/30 08:01:01;;;;;;;3.55;1.30;;;17.70;51.20;;;;;;4940166;29;20043;-54
2022/05/30 08:03:32;;;;;;;4.20;1.40;;;17.80;50.70;;;;;;4943793;28;20047;-53
2022/05/30 08:06:26;;;;;;;4.00;1.80;;;17.80;50.40;;;;;;4950696;29;20433;-51
2022/05/30 08:09:11;;;;;;;6.13;1.30;;;17.80;50.30;;;;;;4939113;29;20099;-53
2022/05/30 08:11:50;;;;;;;4.88;1.00;;;17.90;49.80;;;;;;4958285;28;20046;-53
2022/05/30 08:14:37;;;;;;;5.57;2.22;;;17.90;49.40;;;;;;4941086;29;20134;-53
2022/05/30 08:17:05;;;;;;;5.38;1.20;;;17.90;49.20;;;;;;4931643;29;20044;-51
2022/05/30 08:19:32;;;;;;;3.08;1.10;;;18.00;49.20;;;;;;4940460;29;20035;-50
2022/05/30 08:22:14;;;;;;;2.58;0.90;;;18.00;48.50;;;;;;4948211;28;20475;-50
2022/05/30 08:24:52;;;;;;;1.95;1.08;;;18.10;48.10;;;;;;4948959;29;20474;-53
2022/05/30 08:27:22;;;;;;;4.13;1.17;;;18.10;47.90;;;;;;4938756;29;20076;-47
2022/05/30 08:29:58;;;;;;;3.45;1.23;;;18.30;47.90;;;;;;4960367;28;20040;-52
2022/05/30 08:32:38;;;;;;;4.72;1.20;;;18.30;47.80;;;;;;4965860;28;20479;-51
2022/05/30 08:35:30;;;;;;;3.60;1.27;;;18.30;47.10;;;;;;4935771;29;20529;-48
2022/05/30 08:37:57;;;;;;;4.38;1.50;;;18.40;47.90;;;;;;4944242;28;20057;-52
2022/05/30 08:43:28;;;;;;;4.50;1.30;;;18.50;47.60;;;;;;4929261;29;20131;-46
2022/05/30 08:46:43;;;;;;;3.95;0.93;;;18.50;47.30;;;;;;4951461;28;20043;-52
2022/05/30 08:49:22;;;;;;;4.18;1.48;;;18.50;46.60;;;;;;4913308;29;20047;-50
2022/05/30 08:52:07;;;;;;;4.07;1.00;;;18.50;47.00;;;;;;4930582;29;20607;-51
2022/05/30 08:54:58;;;;;;;10.43;1.55;;;18.60;47.20;;;;;;4927308;29;20138;-51
2022/05/30 08:57:57;;;;;;;3.60;1.13;;;18.60;46.50;;;;;;4931748;29;20056;-50
2022/05/30 09:00:36;;;;;;;3.75;1.10;;;18.60;46.80;;;;;;4930322;29;20054;-50
2022/05/30 09:04:09;;;;;;;2.20;0.88;;;18.60;46.90;;;;;;4905996;29;20083;-53
2022/05/30 09:06:49;;;;;;;2.70;1.05;;;18.60;46.60;;;;;;4894544;29;20051;-51
2022/05/30 09:09:29;;;;;;;2.42;1.20;;;18.70;46.80;;;;;;4901039;29;20040;-53
2022/05/30 09:12:14;;;;;;;4.40;1.10;;;18.60;45.90;;;;;;4921879;29;20058;-51
2022/05/30 09:15:20;;;;;;;3.08;0.93;;;18.60;46.00;;;;;;4930973;29;20066;-50
2022/05/30 09:18:15;;;;;;;2.72;0.95;;;18.70;46.20;;;;;;4932978;29;20048;-50
2022/05/30 09:20:42;;;;;;;1.80;1.00;;;18.70;46.00;;;;;;4933002;29;20126;-53
2022/05/30 09:23:14;;;;;;;3.25;0.80;;;18.80;46.60;;;;;;4937907;28;20044;-53
2022/05/30 09:26:00;;;;;;;3.55;1.35;;;18.80;46.70;;;;;;4957312;28;20042;-52
2022/05/30 09:28:40;;;;;;;4.28;0.80;;;18.90;46.90;;;;;;4950389;28;20571;-52
2022/05/30 09:31:56;;;;;;;1.38;0.70;;;18.90;46.00;;;;;;4946478;28;20074;-51
2022/05/30 09:34:49;;;;;;;3.13;0.90;;;19.00;45.80;;;;;;4945000;29;20055;-53
2022/05/30 09:37:38;;;;;;;2.17;0.90;;;19.00;45.60;;;;;;4939693;28;20062;-49
2022/05/30 09:40:44;;;;;;;3.33;1.15;;;19.00;46.10;;;;;;4898407;29;20045;-51
2022/05/30 09:44:01;;;;;;;1.88;0.52;;;19.00;46.10;;;;;;4927492;29;20043;-54
2022/05/30 09:46:38;;;;;;;2.70;1.00;;;19.00;45.50;;;;;;4954783;28;20047;-54
2022/05/30 09:49:39;;;;;;;3.22;0.82;;;19.00;45.70;;;;;;4936744;29;20054;-52
2022/05/30 09:52:37;;;;;;;2.20;0.60;;;18.90;44.90;;;;;;4941723;29;20037;-53
2022/05/30 09:55:24;;;;;;;3.25;0.85;;;19.00;44.60;;;;;;4922337;29;20043;-51
2022/05/30 09:57:54;;;;;;;2.85;0.75;;;18.90;44.70;;;;;;4937884;28;20487;-53
2022/05/30 10:00:52;;;;;;;4.75;0.70;;;18.90;44.90;;;;;;4947848;28;20130;-49
2022/05/30 10:03:32;;;;;;;3.03;0.63;;;18.90;44.00;;;;;;4940590;28;20056;-54
2022/05/30 10:06:25;;;;;;;3.50;1.13;;;18.90;44.90;;;;;;4940951;28;20119;-54
2022/05/30 10:09:22;;;;;;;2.05;0.80;;;19.00;44.40;;;;;;4937713;29;20067;-54
2022/05/30 10:11:54;;;;;;;1.45;0.52;;;19.00;43.80;;;;;;4942104;29;20044;-53
2022/05/30 10:14:28;;;;;;;4.20;0.90;;;19.00;44.80;;;;;;4942755;29;20171;-52
2022/05/30 10:17:27;;;;;;;3.70;1.00;;;19.20;45.10;;;;;;4959466;28;20047;-51
2022/05/30 10:19:56;;;;;;;3.28;1.05;;;19.30;44.40;;;;;;4944572;28;20507;-53
2022/05/30 10:30:06;;;;;;;1.52;1.20;;;19.70;43.80;;;;;;4933327;29;20055;-50
2022/05/30 10:33:02;;;;;;;2.83;1.00;;;19.90;44.10;;;;;;4934395;29;20501;-54
2022/05/30 10:35:44;;;;;;;3.15;1.45;;;20.00;43.60;;;;;;4942374;28;20151;-52
2022/05/30 10:38:17;;;;;;;3.40;1.15;;;20.10;42.90;;;;;;4932492;28;20040;-52
2022/05/30 10:40:59;;;;;;;2.45;0.82;;;20.20;42.40;;;;;;4932891;28;20043;-52
2022/05/30 10:43:40;;;;;;;1.45;1.00;;;20.30;41.10;;;;;;4924211;29;20075;-52
2022/05/30 10:46:16;;;;;;;3.22;1.38;;;20.40;41.80;;;;;;4931917;29;20047;-54
2022/05/30 10:49:08;;;;;;;3.35;1.02;;;20.40;41.20;;;;;;4926961;29;20051;-52
2022/05/30 10:52:17;;;;;;;2.67;1.23;;;20.50;40.50;;;;;;4928582;29;20082;-50
2022/05/30 10:55:07;;;;;;;3.42;1.17;;;20.60;40.50;;;;;;4923349;28;20043;-53
2022/05/30 10:57:40;;;;;;;3.63;1.30;;;20.70;40.90;;;;;;4935587;29;20098;-53
2022/05/30 11:00:23;;;;;;;2.95;1.10;;;20.70;40.40;;;;;;4962031;23;20138;-48
2022/05/30 11:03:05;;;;;;;1.58;0.98;;;20.80;39.80;;;;;;4933437;29;20043;-50
2022/05/30 11:05:59;;;;;;;3.90;1.00;;;20.90;39.60;;;;;;4930891;29;20051;-49
2022/05/30 11:08:34;;;;;;;2.72;1.23;;;21.00;40.00;;;;;;4963820;28;20288;-53
2022/05/30 11:11:12;;;;;;;2.67;0.90;;;21.10;40.00;;;;;;4949039;28;20052;-51
2022/05/30 11:13:53;;;;;;;1.83;0.90;;;21.20;40.50;;;;;;4934249;29;20516;-53
2022/05/30 11:17:17;;;;;;;2.35;0.93;;;21.30;39.00;;;;;;4934227;29;20311;-49
2022/05/30 11:20:15;;;;;;;2.40;0.80;;;21.30;39.50;;;;;;4914840;29;20420;-53
2022/05/30 11:22:55;;;;;;;3.58;0.70;;;21.40;38.90;;;;;;4933138;29;20051;-50
2022/05/30 11:25:37;;;;;;;2.50;0.65;;;21.40;38.90;;;;;;4934447;29;20433;-51
2022/05/30 11:28:20;;;;;;;2.33;0.63;;;21.40;38.20;;;;;;4941824;29;20086;-48
2022/05/30 11:31:08;;;;;;;1.80;0.70;;;21.40;38.40;;;;;;4927552;29;20044;-49
2022/05/30 11:34:08;;;;;;;1.95;0.75;;;21.30;38.50;;;;;;4935020;29;20035;-49
2022/05/30 11:36:50;;;;;;;3.17;1.15;;;21.40;38.40;;;;;;4937200;29;20400;-52
2022/05/30 11:39:42;;;;;;;2.00;0.63;;;21.30;38.60;;;;;;4950232;29;20554;-51
2022/05/30 11:42:28;;;;;;;;;;;21.20;38.60;;;;;;4932481;29;20396;-56
2022/05/30 11:45:02;;;;;;;1.30;0.40;;;21.30;39.70;;;;;;4932865;29;20210;-50
2022/05/30 11:47:49;;;;;;;1.77;0.52;;;21.20;38.30;;;;;;4943795;29;20388;-53
2022/05/30 11:50:29;;;;;;;3.83;0.95;;;21.20;38.60;;;;;;4946085;28;20050;-53
2022/05/30 11:53:23;;;;;;;0.95;0.73;;;21.10;38.70;;;;;;4942919;29;20047;-50
2022/05/30 11:56:12;;;;;;;2.20;0.70;;;21.10;38.50;;;;;;4937047;29;20058;-51
2022/05/30 11:58:42;;;;;;;4.53;0.77;;;21.10;38.20;;;;;;4933944;29;20102;-52
2022/05/30 12:01:11;;;;;;;0.95;0.50;;;21.10;39.60;;;;;;4927036;29;20138;-53
2022/05/30 12:03:56;;;;;;;2.85;1.00;;;21.10;39.00;;;;;;4921431;29;20043;-49
2022/05/30 12:06:44;;;;;;;1.67;0.80;;;21.20;38.60;;;;;;4932924;29;20106;-53
2022/05/30 12:09:38;;;;;;;3.15;0.63;;;21.20;38.50;;;;;;4936317;29;20099;-52
2022/05/30 12:12:38;;;;;;;1.48;0.70;;;21.30;38.20;;;;;;4940721;29;20044;-54
2022/05/30 12:15:29;;;;;;;3.85;0.80;;;21.30;37.40;;;;;;4929548;29;20036;-53
2022/05/30 12:24:02;;;;;;;2.42;0.93;;;21.30;37.40;;;;;;4925064;29;20220;-49
2022/05/30 12:26:53;;;;;;;1.65;0.70;;;21.20;37.10;;;;;;4943615;29;20087;-51
2022/05/30 12:29:38;;;;;;;3.03;0.57;;;21.20;37.50;;;;;;4934121;28;20071;-49
2022/05/30 12:32:08;;;;;;;2.05;0.75;;;21.10;37.40;;;;;;4940782;29;20110;-52
2022/05/30 12:37:45;;;;;;;2.03;0.70;;;21.00;38.20;;;;;;4921276;29;20170;-49
2022/05/30 12:40:24;;;;;;;2.85;0.52;;;21.00;38.50;;;;;;4934275;28;20063;-50
2022/05/30 12:43:03;;;;;;;2.15;0.73;;;20.90;38.20;;;;;;4939829;29;20047;-53
2022/05/30 12:45:44;;;;;;;3.28;0.80;;;21.00;38.50;;;;;;4931976;28;20055;-55
2022/05/30 12:48:26;;;;;;;1.67;0.87;;;21.10;38.10;;;;;;4928489;29;20048;-50
2022/05/30 12:50:53;;;;;;;1.73;0.90;;;21.30;38.30;;;;;;4942908;28;20739;-49
2022/05/30 12:53:22;;;;;;;2.55;0.70;;;21.50;39.20;;;;;;4950126;29;20065;-54
2022/05/30 12:55:54;;;;;;;1.48;0.80;;;21.80;39.20;;;;;;4936699;29;20048;-50
2022/05/30 12:58:33;;;;;;;;;;;22.20;37.50;;;;;;4928552;29;20475;-50
2022/05/30 13:01:20;;;;;;;2.50;0.80;;;22.40;38.70;;;;;;4937543;29;20434;-49
2022/05/30 13:04:07;;;;;;;1.17;0.85;;;22.60;36.50;;;;;;4934439;29;20044;-51
2022/05/30 13:06:44;;;;;;;2.80;1.00;;;22.70;36.10;;;;;;4930730;29;20107;-52
2022/05/30 13:09:23;;;;;;;2.60;1.00;;;22.80;35.50;;;;;;4937641;29;20047;-52
2022/05/30 13:12:02;;;;;;;3.47;0.82;;;22.90;35.00;;;;;;4893836;29;20122;-54
2022/05/30 13:14:40;;;;;;;2.85;1.00;;;23.00;35.30;;;;;;4928229;29;20127;-57
2022/05/30 13:17:19;;;;;;;1.80;0.90;;;23.20;34.60;;;;;;4907889;29;20052;-55
2022/05/30 13:19:58;;;;;;;2.63;1.08;;;23.40;34.60;;;;;;4925154;29;20043;-59
2022/05/30 13:22:52;;;;;;;0.80;0.50;;;23.50;34.80;;;;;;4911454;29;20048;-51
2022/05/30 13:25:21;;;;;;;3.75;0.93;;;23.70;35.20;;;;;;4910549;29;20054;-52
2022/05/30 13:27:48;;;;;;;1.60;0.90;;;23.80;35.00;;;;;;4934064;29;20039;-54
2022/05/30 13:30:29;;;;;;;2.13;1.30;;;24.00;33.90;;;;;;4920174;29;20989;-52
2022/05/30 13:32:56;;;;;;;1.40;1.02;;;24.20;34.00;;;;;;4923345;29;20036;-57
2022/05/30 13:35:31;;;;;;;3.10;1.20;;;24.40;34.40;;;;;;4919269;29;20098;-50
2022/05/30 13:38:02;;;;;;;1.05;0.95;;;24.50;33.30;;;;;;4934919;29;20082;-53
2022/05/30 13:40:31;;;;;;;2.50;0.85;;;24.70;32.80;;;;;;4918806;29;20075;-51
2022/05/30 13:43:04;;;;;;;3.17;1.20;;;24.80;32.70;;;;;;4923948;29;20048;-55
2022/05/30 13:45:51;;;;;;;1.73;0.90;;;24.90;32.50;;;;;;4917071;29;20042;-50
2022/05/30 13:48:18;;;;;;;1.55;0.80;;;25.00;33.20;;;;;;4944187;29;20076;-52
2022/05/30 13:51:02;;;;;;;2.20;1.08;;;25.00;32.80;;;;;;4925276;28;20139;-50
2022/05/30 13:53:47;;;;;;;3.72;0.90;;;25.00;32.70;;;;;;4914717;29;20436;-52
2022/05/30 13:56:29;;;;;;;1.90;0.60;;;24.90;32.40;;;;;;4911492;29;20385;-54
2022/05/30 13:58:58;;;;;;;2.40;0.90;;;24.90;32.40;;;;;;4943065;29;20475;-54
2022/05/30 14:01:31;;;;;;;4.78;0.98;;;24.90;32.50;;;;;;4918232;28;20048;-55
2022/05/30 14:04:02;;;;;;;1.63;0.90;;;24.90;32.70;;;;;;4930410;29;20059;-49
2022/05/30 14:06:33;;;;;;;1.87;1.07;;;24.90;32.60;;;;;;4918283;29;20130;-52
2022/05/30 14:09:03;;;;;;;3.70;1.47;;;24.90;32.10;;;;;;4932044;28;20040;-54